Time;durP1;ratioP1;P1;durP2;ratioP2;P2;SDS_P1;SDS_P2;PMS_P1;PMS_P2;Temp;Humidity;BMP_temperature;BMP_pressure;BME280_temperature;BME280_humidity;BME280_pressure;Samples;Min_cycle;Max_cycle;Signal;HPM_P1;HPM_P2
2023/04/10 00:00:11;;;;;;;;;;;18.30;61.80;;;;;;10127435;28;94777;-60
2023/04/10 00:05:13;;;;;;;;;;;18.30;61.70;;;;;;10124362;28;95920;-60
2023/04/10 00:10:15;;;;;;;;;;;18.30;61.80;;;;;;10126108;28;94826;-60
2023/04/10 00:15:17;;;;;;;;;;;18.30;61.70;;;;;;10126525;28;93450;-60
2023/04/10 00:20:19;;;;;;;;;;;18.30;61.50;;;;;;10125913;28;93520;-61
2023/04/10 00:25:21;;;;;;;;;;;18.30;61.50;;;;;;10126556;28;93795;-60
2023/04/10 00:30:23;;;;;;;;;;;18.20;61.40;;;;;;10108505;28;93113;-60
2023/04/10 00:35:25;;;;;;;;;;;18.20;61.20;;;;;;10126159;28;93118;-60
2023/04/10 00:40:29;;;;;;;;;;;18.20;61.20;;;;;;10127358;28;93354;-60
2023/04/10 00:45:30;;;;;;;;;;;18.20;61.10;;;;;;10126531;28;92571;-61
2023/04/10 00:50:32;;;;;;;;;;;18.20;61.00;;;;;;10125539;28;93445;-61
2023/04/10 00:55:34;;;;;;;;;;;18.20;61.00;;;;;;10105649;28;95490;-60
2023/04/10 01:00:36;;;;;;;;;;;18.20;61.00;;;;;;10125219;28;93827;-60
2023/04/10 01:05:47;;;;;;;;;;;18.20;60.90;;;;;;10131410;28;95108;-61
2023/04/10 01:10:59;;;;;;;;;;;18.10;60.80;;;;;;10115360;28;93914;-60
2023/04/10 01:16:03;;;;;;;;;;;18.10;60.80;;;;;;10132009;28;93368;-60
2023/04/10 01:21:08;;;;;;;;;;;18.10;60.70;;;;;;10114998;28;93126;-60
2023/04/10 01:26:10;;;;;;;;;;;18.10;60.70;;;;;;10131522;28;93109;-60
2023/04/10 01:31:15;;;;;;;;;;;18.10;60.60;;;;;;10132583;28;92148;-60
2023/04/10 01:36:20;;;;;;;;;;;18.10;60.60;;;;;;10114387;28;94343;-60
2023/04/10 01:41:22;;;;;;;;;;;18.10;60.60;;;;;;10132160;28;94425;-60
2023/04/10 01:46:26;;;;;;;;;;;18.00;60.40;;;;;;10128169;28;96003;-60
2023/04/10 01:51:29;;;;;;;;;;;18.00;60.40;;;;;;10130131;28;93578;-60
2023/04/10 01:56:31;;;;;;;;;;;18.00;60.50;;;;;;10130105;28;93538;-60
2023/04/10 02:01:33;;;;;;;;;;;18.00;60.40;;;;;;10130189;28;93319;-60
2023/04/10 02:06:35;;;;;;;;;;;18.00;60.40;;;;;;10131525;28;95991;-60
2023/04/10 02:11:39;;;;;;;;;;;18.00;60.40;;;;;;10129976;28;93328;-60
2023/04/10 02:16:41;;;;;;;;;;;18.00;60.30;;;;;;10129572;28;93491;-60
2023/04/10 02:21:43;;;;;;;;;;;18.00;60.30;;;;;;10131188;28;92744;-60
2023/04/10 02:26:46;;;;;;;;;;;18.00;60.30;;;;;;10130624;28;94393;-61
2023/04/10 02:31:49;;;;;;;;;;;18.00;60.20;;;;;;10129896;28;94104;-60
2023/04/10 02:36:51;;;;;;;;;;;18.00;60.10;;;;;;10126739;28;95843;-60
2023/04/10 02:41:53;;;;;;;;;;;18.00;60.10;;;;;;10112294;28;95041;-60
2023/04/10 02:46:55;;;;;;;;;;;18.00;60.10;;;;;;10128873;28;92691;-60
2023/04/10 02:51:57;;;;;;;;;;;17.90;60.00;;;;;;10111877;28;92748;-60
2023/04/10 02:56:59;;;;;;;;;;;17.90;60.00;;;;;;10129565;28;93540;-60
2023/04/10 03:02:02;;;;;;;;;;;17.90;59.90;;;;;;10112233;28;113816;-60
2023/04/10 03:07:04;;;;;;;;;;;17.90;59.90;;;;;;10128641;28;94217;-60
2023/04/10 03:12:06;;;;;;;;;;;17.90;59.90;;;;;;10129418;28;93371;-60
2023/04/10 03:17:07;;;;;;;;;;;17.90;59.90;;;;;;10111206;28;93267;-60
2023/04/10 03:22:09;;;;;;;;;;;17.90;59.80;;;;;;10127846;28;93510;-61
2023/04/10 03:27:11;;;;;;;;;;;17.90;59.80;;;;;;10123855;28;96252;-60
2023/04/10 03:32:13;;;;;;;;;;;17.80;59.70;;;;;;10127731;28;93249;-60
2023/04/10 03:37:15;;;;;;;;;;;17.80;59.70;;;;;;10127581;28;93731;-60
2023/04/10 03:42:16;;;;;;;;;;;17.80;59.70;;;;;;10110184;28;94141;-60
2023/04/10 05:05:01;;;;;;;;;;;17.70;59.30;;;;;;10003225;29;93224;-68
2023/04/10 05:10:03;;;;;;;;;;;17.70;59.30;;;;;;10016852;29;93364;-68
2023/04/10 05:15:05;;;;;;;;;;;17.60;59.20;;;;;;10052304;29;93491;-68
2023/04/10 05:20:07;;;;;;;;;;;17.70;59.30;;;;;;10053106;29;93955;-68
2023/04/10 05:25:08;;;;;;;;;;;17.70;59.30;;;;;;10034558;29;96911;-68
2023/04/10 05:30:10;;;;;;;;;;;17.70;59.90;;;;;;10053466;29;93550;-68
2023/04/10 05:35:12;;;;;;;;;;;17.70;60.00;;;;;;10053766;29;94434;-68
2023/04/10 05:40:14;;;;;;;;;;;17.70;60.00;;;;;;10036619;29;94359;-68
2023/04/10 05:45:17;;;;;;;;;;;17.70;60.10;;;;;;10051093;29;92990;-68
2023/04/10 05:50:18;;;;;;;;;;;17.70;60.20;;;;;;10048883;29;93143;-68
2023/04/10 05:55:23;;;;;;;;;;;17.70;60.30;;;;;;10033339;29;93602;-68
2023/04/10 06:00:25;;;;;;;;;;;17.70;60.30;;;;;;10016467;29;92985;-68
2023/04/10 06:05:27;;;;;;;;;;;17.70;60.40;;;;;;10047873;29;94473;-68
2023/04/10 06:10:29;;;;;;;;;;;17.70;60.50;;;;;;10051269;29;93501;-68
2023/04/10 06:15:31;;;;;;;;;;;17.70;60.70;;;;;;10045921;29;96909;-69
2023/04/10 06:20:32;;;;;;;;;;;17.70;60.80;;;;;;10051896;29;93012;-69
2023/04/10 06:25:34;;;;;;;;;;;17.80;61.00;;;;;;10051400;29;94367;-70
2023/04/10 06:30:36;;;;;;;;;;;17.70;61.10;;;;;;10052356;29;93726;-69
2023/04/10 06:35:38;;;;;;;;;;;17.80;61.20;;;;;;10051652;29;93431;-69
2023/04/10 06:40:40;;;;;;;;;;;17.80;61.30;;;;;;10051639;29;93652;-68
2023/04/10 06:45:41;;;;;;;;;;;17.80;61.30;;;;;;10051535;29;93554;-69
2023/04/10 06:50:43;;;;;;;;;;;17.80;61.40;;;;;;10051347;29;92862;-69
2023/04/10 06:55:45;;;;;;;;;;;17.80;61.50;;;;;;10050354;29;94621;-69
2023/04/10 07:00:47;;;;;;;;;;;17.90;61.50;;;;;;10050073;29;94509;-69
2023/04/10 07:05:49;;;;;;;;;;;17.80;61.50;;;;;;10048239;29;96955;-68
2023/04/10 07:10:50;;;;;;;;;;;17.80;61.50;;;;;;10050366;29;94275;-68
2023/04/10 07:15:52;;;;;;;;;;;17.80;61.50;;;;;;10050240;29;92702;-67
2023/04/10 07:20:54;;;;;;;;;;;17.80;61.60;;;;;;10033389;29;94900;-67
2023/04/10 07:25:57;;;;;;;;;;;17.90;63.40;;;;;;10049526;29;93289;-66
2023/04/10 07:30:58;;;;;;;;;;;18.00;64.60;;;;;;10049045;29;92633;-68
2023/04/10 07:36:01;;;;;;;;;;;18.00;64.30;;;;;;10048195;29;93293;-67
2023/04/10 07:41:03;;;;;;;;;;;18.00;63.50;;;;;;10050025;29;92871;-68
2023/04/10 07:46:05;;;;;;;;;;;18.00;63.30;;;;;;10048184;29;93450;-68
2023/04/10 07:51:08;;;;;;;;;;;18.00;63.50;;;;;;10048707;29;93434;-68
2023/04/10 07:56:19;;;;;;;;;;;18.10;63.90;;;;;;10046706;29;97165;-67
2023/04/10 08:01:21;;;;;;;;;;;18.10;64.00;;;;;;10049361;29;94801;-68
2023/04/10 08:06:23;;;;;;;;;;;18.20;64.10;;;;;;10049285;29;93083;-68
2023/04/10 08:11:30;;;;;;;;;;;18.20;64.40;;;;;;10030515;29;93480;-69
2023/04/10 08:16:32;;;;;;;;;;;18.30;64.40;;;;;;10047889;29;94648;-69
2023/04/10 08:21:34;;;;;;;;;;;18.30;64.40;;;;;;10047966;29;93588;-67
2023/04/10 08:26:36;;;;;;;;;;;18.30;64.20;;;;;;10047226;29;93966;-68
2023/04/10 08:31:38;;;;;;;;;;;18.30;64.50;;;;;;10029213;29;93650;-68
2023/04/10 08:36:39;;;;;;;;;;;18.30;64.10;;;;;;10029554;29;92880;-67
2023/04/10 08:41:41;;;;;;;;;;;18.30;64.10;;;;;;10047912;29;93590;-68
2023/04/10 08:46:44;;;;;;;;;;;18.30;63.60;;;;;;10044386;29;96897;-66
2023/04/10 08:51:48;;;;;;;;;;;18.30;63.50;;;;;;10048113;29;94624;-67
2023/04/10 08:56:52;;;;;;;;;;;18.20;63.70;;;;;;10047805;29;93569;-66
2023/04/10 09:01:55;;;;;;;;;;;18.30;64.00;;;;;;10030698;29;94462;-66
2023/04/10 09:06:57;;;;;;;;;;;18.30;64.00;;;;;;10046412;29;94415;-65
2023/04/10 09:12:00;;;;;;;;;;;18.30;63.90;;;;;;10047434;29;92961;-65
2023/04/10 09:17:12;;;;;;;;;;;18.40;64.00;;;;;;10048081;29;93693;-65
2023/04/10 09:22:15;;;;;;;;;;;18.40;63.90;;;;;;10049246;29;94045;-66
2023/04/10 09:27:27;;;;;;;;;;;18.40;63.90;;;;;;10053679;29;93384;-66
2023/04/10 09:32:35;;;;;;;;;;;18.40;63.80;;;;;;10053648;29;93457;-65
2023/04/10 09:37:37;;;;;;;;;;;18.40;63.70;;;;;;10050694;29;95296;-67
2023/04/10 09:42:39;;;;;;;;;;;18.40;63.90;;;;;;10053277;29;94817;-66
2023/04/10 09:47:41;;;;;;;;;;;18.40;63.90;;;;;;10052300;29;93888;-66
2023/04/10 09:52:42;;;;;;;;;;;18.40;63.80;;;;;;10051895;29;94504;-66
2023/04/10 09:57:44;;;;;;;;;;;18.40;64.10;;;;;;10052485;29;93661;-68
2023/04/10 10:02:47;;;;;;;;;;;18.40;63.20;;;;;;10052587;29;94588;-67
2023/04/10 10:07:49;;;;;;;;;;;18.40;62.50;;;;;;10034493;29;94007;-67
2023/04/10 10:12:53;;;;;;;;;;;18.30;62.20;;;;;;10052287;29;93463;-67
2023/04/10 10:17:55;;;;;;;;;;;18.30;62.10;;;;;;10034717;29;93750;-67
2023/04/10 10:22:57;;;;;;;;;;;18.20;62.20;;;;;;10051634;29;93607;-67
2023/04/10 10:28:00;;;;;;;;;;;18.20;62.10;;;;;;10049936;29;96898;-67
2023/04/10 10:33:05;;;;;;;;;;;18.20;61.90;;;;;;10052355;29;94539;-67
2023/04/10 10:38:07;;;;;;;;;;;18.20;62.10;;;;;;10032651;29;93028;-67
2023/04/10 10:43:27;;;;;;;;;;;18.10;62.00;;;;;;10051275;29;93468;-67
2023/04/10 10:48:28;;;;;;;;;;;18.10;62.00;;;;;;10051274;29;93535;-67
2023/04/10 10:53:30;;;;;;;;;;;18.20;62.00;;;;;;10050801;29;94133;-67
2023/04/10 10:58:47;;;;;;;;;;;18.10;62.00;;;;;;10050862;29;94536;-67
2023/04/10 11:03:49;;;;;;;;;;;18.10;62.00;;;;;;10052289;29;93367;-67
2023/04/10 11:08:51;;;;;;;;;;;18.10;62.00;;;;;;10033643;29;92619;-67
2023/04/10 11:13:57;;;;;;;;;;;18.10;61.90;;;;;;10051894;29;94529;-67
2023/04/10 11:19:03;;;;;;;;;;;18.10;61.80;;;;;;10047794;29;96105;-67
2023/04/10 11:24:15;;;;;;;;;;;18.10;61.90;;;;;;10035598;29;93783;-67
2023/04/10 11:29:26;;;;;;;;;;;18.10;61.60;;;;;;10051527;29;94341;-67
2023/04/10 11:34:32;;;;;;;;;;;18.20;61.50;;;;;;10033392;29;93425;-67
2023/04/10 11:39:33;;;;;;;;;;;18.20;61.20;;;;;;10050404;29;93496;-67
2023/04/10 11:44:35;;;;;;;;;;;18.20;61.20;;;;;;10033223;29;94699;-67
2023/04/10 11:49:37;;;;;;;;;;;18.20;61.30;;;;;;10049855;29;93457;-67
2023/04/10 11:54:46;;;;;;;;;;;18.20;61.20;;;;;;10050868;29;93797;-67
2023/04/10 11:59:49;;;;;;;;;;;18.20;61.20;;;;;;10049649;29;93180;-67
2023/04/10 12:04:56;;;;;;;;;;;18.20;60.90;;;;;;10048831;29;93485;-67
2023/04/10 12:09:58;;;;;;;;;;;18.20;60.80;;;;;;10047772;29;95705;-65
2023/04/10 12:14:59;;;;;;;;;;;18.20;60.80;;;;;;10049401;29;93323;-66
2023/04/10 12:20:02;;;;;;;;;;;18.20;60.80;;;;;;10049330;29;94427;-66
2023/04/10 12:25:04;;;;;;;;;;;18.20;60.80;;;;;;10048917;29;93379;-66
2023/04/10 12:30:06;;;;;;;;;;;18.10;60.60;;;;;;10049098;29;94607;-66
2023/04/10 12:35:08;;;;;;;;;;;18.10;60.60;;;;;;10049463;29;94478;-66
2023/04/10 12:40:10;;;;;;;;;;;18.10;60.60;;;;;;10049485;29;94269;-66
2023/04/10 12:45:13;;;;;;;;;;;18.10;60.60;;;;;;10049634;29;93892;-66
2023/04/10 12:50:15;;;;;;;;;;;18.10;60.60;;;;;;10047583;29;92524;-66
2023/04/10 12:55:20;;;;;;;;;;;18.10;60.60;;;;;;10048958;29;93517;-67
2023/04/10 13:00:22;;;;;;;;;;;18.10;60.40;;;;;;10032595;29;96035;-66
2023/04/10 13:05:24;;;;;;;;;;;18.10;60.70;;;;;;10039079;29;93887;-66
2023/04/10 13:10:26;;;;;;;;;;;18.10;60.40;;;;;;10054764;29;94664;-65
2023/04/10 13:15:28;;;;;;;;;;;18.10;60.60;;;;;;10054788;29;93635;-65
2023/04/10 13:20:30;;;;;;;;;;;18.00;60.50;;;;;;10053565;29;94465;-67
2023/04/10 13:25:32;;;;;;;;;;;18.00;60.50;;;;;;10054441;29;93176;-66
2023/04/10 13:30:35;;;;;;;;;;;18.00;60.60;;;;;;10054455;29;94223;-66
2023/04/10 13:35:37;;;;;;;;;;;18.00;60.50;;;;;;10055116;29;91826;-66
2023/04/10 13:40:39;;;;;;;;;;;18.00;60.60;;;;;;10037612;29;93756;-65
2023/04/10 13:45:40;;;;;;;;;;;18.00;60.30;;;;;;10054191;29;94473;-66
2023/04/10 13:50:42;;;;;;;;;;;18.00;60.10;;;;;;10051316;29;97014;-66
2023/04/10 13:55:46;;;;;;;;;;;18.00;60.20;;;;;;10052990;29;93981;-66
2023/04/10 14:00:48;;;;;;;;;;;17.90;60.00;;;;;;10053310;29;93514;-66
2023/04/10 14:05:51;;;;;;;;;;;17.90;60.30;;;;;;10052902;29;94447;-66
2023/04/10 14:10:53;;;;;;;;;;;17.90;59.90;;;;;;10036443;28;93249;-65
2023/04/10 14:15:55;;;;;;;;;;;17.90;60.00;;;;;;10052006;29;94499;-66
2023/04/10 14:20:56;;;;;;;;;;;17.90;60.00;;;;;;10053205;29;93346;-66
2023/04/10 14:25:58;;;;;;;;;;;17.90;60.00;;;;;;10053367;29;93599;-66
2023/04/10 14:31:00;;;;;;;;;;;17.80;59.80;;;;;;10053552;29;94275;-65
2023/04/10 14:36:01;;;;;;;;;;;17.80;60.00;;;;;;10052308;29;93325;-67
2023/04/10 14:41:03;;;;;;;;;;;17.80;60.20;;;;;;10049381;29;97024;-66
2023/04/10 14:46:05;;;;;;;;;;;17.80;60.30;;;;;;10052280;29;93453;-66
2023/04/10 14:51:11;;;;;;;;;;;17.80;60.30;;;;;;10035216;29;93393;-66
2023/04/10 14:56:14;;;;;;;;;;;17.80;60.50;;;;;;10051940;29;93385;-66
2023/04/10 15:01:16;;;;;;;;;;;17.80;60.70;;;;;;10034354;29;92601;-66
2023/04/10 15:06:18;;;;;;;;;;;17.80;60.70;;;;;;10034186;29;92608;-66
2023/04/10 15:11:19;;;;;;;;;;;17.80;60.90;;;;;;10051798;29;93164;-66
2023/04/10 15:16:21;;;;;;;;;;;17.80;61.10;;;;;;10053223;29;93579;-66
2023/04/10 15:21:23;;;;;;;;;;;17.80;61.20;;;;;;10050310;29;93133;-66
2023/04/10 15:26:25;;;;;;;;;;;17.80;61.20;;;;;;10051433;29;94448;-66
2023/04/10 15:31:26;;;;;;;;;;;17.80;61.30;;;;;;10031823;29;95850;-66
2023/04/10 15:36:28;;;;;;;;;;;17.80;61.40;;;;;;10050653;29;93470;-66
2023/04/10 15:41:31;;;;;;;;;;;17.70;61.50;;;;;;10050182;29;93947;-66
2023/04/10 15:46:33;;;;;;;;;;;17.80;61.70;;;;;;10049548;29;94477;-66
2023/04/10 15:51:35;;;;;;;;;;;17.80;62.50;;;;;;10048735;29;93516;-65
2023/04/10 15:56:36;;;;;;;;;;;17.80;62.90;;;;;;10049321;29;93690;-67
2023/04/10 16:01:38;;;;;;;;;;;18.00;63.70;;;;;;10049985;29;92788;-66
2023/04/10 16:06:40;;;;;;;;;;;18.30;66.20;;;;;;10050934;29;93848;-64
2023/04/10 16:11:42;;;;;;;;;;;18.60;69.20;;;;;;10033464;29;93339;-66
2023/04/10 16:16:44;;;;;;;;;;;19.10;70.60;;;;;;10048943;29;94631;-67
2023/04/10 16:21:45;;;;;;;;;;;19.60;69.60;;;;;;10046458;29;95881;-66
2023/04/10 16:26:48;;;;;;;;;;;20.00;69.80;;;;;;10048740;29;94693;-66
2023/04/10 16:31:49;;;;;;;;;;;20.20;67.80;;;;;;10030208;29;94099;-66
2023/04/10 16:36:51;;;;;;;;;;;20.30;66.70;;;;;;10056116;29;94403;-67
2023/04/10 16:41:53;;;;;;;;;;;20.30;66.00;;;;;;10055299;29;93156;-66
2023/04/10 16:46:55;;;;;;;;;;;20.20;65.70;;;;;;10055192;29;93488;-66
2023/04/10 16:51:57;;;;;;;;;;;20.00;65.50;;;;;;10055411;29;93638;-66
2023/04/10 16:56:59;;;;;;;;;;;19.90;65.60;;;;;;10055053;29;92353;-66
2023/04/10 17:02:00;;;;;;;;;;;19.80;67.10;;;;;;10053858;29;94299;-67
2023/04/10 17:07:02;;;;;;;;;;;19.70;67.50;;;;;;10053267;29;93553;-66
2023/04/10 17:12:04;;;;;;;;;;;19.50;67.40;;;;;;10035941;29;96492;-67
2023/04/10 17:17:06;;;;;;;;;;;19.40;67.40;;;;;;10012725;29;93769;-68
2023/04/10 17:22:15;;;;;;;;;;;19.30;67.70;;;;;;9998393;29;93639;-68
2023/04/10 17:27:16;;;;;;;;;;;19.30;67.70;;;;;;10014418;29;93878;-68
2023/04/10 17:32:18;;;;;;;;;;;19.30;67.80;;;;;;10015908;29;94217;-67
2023/04/10 17:37:21;;;;;;;;;;;19.20;68.10;;;;;;10014531;29;93611;-67
2023/04/10 17:42:24;;;;;;;;;;;19.20;68.10;;;;;;10012190;29;95225;-67
2023/04/10 17:47:26;;;;;;;;;;;19.10;68.00;;;;;;10010768;29;92743;-67
2023/04/10 17:52:28;;;;;;;;;;;19.10;68.00;;;;;;10011921;29;94563;-67
2023/04/10 17:57:29;;;;;;;;;;;19.00;68.10;;;;;;10013190;29;93611;-67
2023/04/10 18:02:31;;;;;;;;;;;19.00;68.20;;;;;;9994959;29;95795;-67
2023/04/10 18:07:33;;;;;;;;;;;18.90;68.20;;;;;;10014195;29;93603;-67
2023/04/10 18:12:35;;;;;;;;;;;18.80;68.20;;;;;;9997425;29;92796;-67
2023/04/10 18:17:36;;;;;;;;;;;18.80;68.10;;;;;;9994219;29;94180;-67
2023/04/10 18:22:40;;;;;;;;;;;18.80;68.00;;;;;;10013263;29;93701;-69
2023/04/10 18:27:42;;;;;;;;;;;18.80;67.90;;;;;;10013278;29;92598;-67
2023/04/10 18:32:56;;;;;;;;;;;18.80;68.50;;;;;;10013198;29;93868;-67
2023/04/10 18:37:57;;;;;;;;;;;18.80;68.50;;;;;;10013273;29;92709;-68
2023/04/10 18:42:59;;;;;;;;;;;18.80;68.50;;;;;;10013303;29;93475;-67
2023/04/10 18:48:01;;;;;;;;;;;18.80;68.30;;;;;;10012135;29;94520;-68
2023/04/10 18:53:03;;;;;;;;;;;18.80;68.30;;;;;;10010468;29;96043;-67
2023/04/10 18:58:05;;;;;;;;;;;18.80;68.30;;;;;;10011320;29;93504;-67
2023/04/10 19:03:06;;;;;;;;;;;18.80;68.40;;;;;;10012777;29;93507;-67
2023/04/10 19:08:13;;;;;;;;;;;18.80;68.40;;;;;;10012204;29;93124;-67
2023/04/10 19:13:14;;;;;;;;;;;18.70;68.40;;;;;;10011517;29;93527;-67
2023/04/10 19:18:16;;;;;;;;;;;18.70;68.30;;;;;;10010957;29;94481;-67
2023/04/10 19:23:27;;;;;;;;;;;18.70;68.40;;;;;;10413773;28;87642;-67
2023/04/10 19:28:29;;;;;;;;;;;18.70;68.40;;;;;;10411407;27;88178;-69
2023/04/10 19:33:31;;;;;;;;;;;18.70;68.50;;;;;;10412111;27;89162;-68
2023/04/10 19:38:33;;;;;;;;;;;18.60;68.40;;;;;;10410712;28;88997;-68
2023/04/10 19:43:35;;;;;;;;;;;18.60;68.40;;;;;;10409933;27;88195;-68
2023/04/10 19:48:37;;;;;;;;;;;18.70;68.40;;;;;;10410525;27;88531;-68
2023/04/10 19:53:40;;;;;;;;;;;18.60;67.90;;;;;;10410244;28;89276;-69
2023/04/10 19:58:41;;;;;;;;;;;18.60;67.80;;;;;;10410193;27;88741;-68
2023/04/10 20:03:46;;;;;;;;;;;18.60;67.70;;;;;;10409756;28;89236;-68
2023/04/10 20:08:48;;;;;;;;;;;18.60;67.70;;;;;;10407761;28;88013;-68
2023/04/10 20:13:49;;;;;;;;;;;18.50;67.60;;;;;;10409199;28;89116;-68
2023/04/10 20:18:52;;;;;;;;;;;18.50;67.50;;;;;;10408952;27;88122;-68
2023/04/10 20:23:56;;;;;;;;;;;18.50;67.40;;;;;;10408339;28;88274;-68
2023/04/10 20:28:59;;;;;;;;;;;18.40;67.40;;;;;;10409660;27;88003;-68
2023/04/10 20:34:01;;;;;;;;;;;18.40;67.30;;;;;;10385450;27;88436;-68
2023/04/10 20:39:02;;;;;;;;;;;18.40;67.20;;;;;;10381591;28;89565;-69
2023/04/10 20:44:05;;;;;;;;;;;18.40;67.20;;;;;;10380837;28;88195;-68
2023/04/10 20:49:07;;;;;;;;;;;18.30;67.00;;;;;;10380778;28;88227;-69
2023/04/10 20:54:08;;;;;;;;;;;18.30;67.00;;;;;;10380844;28;88375;-68
2023/04/10 20:59:10;;;;;;;;;;;18.30;67.00;;;;;;10378672;28;89033;-68
2023/04/10 21:04:12;;;;;;;;;;;18.30;67.00;;;;;;10381277;28;88341;-69
2023/04/10 21:09:14;;;;;;;;;;;18.20;66.90;;;;;;10381301;28;89531;-69
2023/04/10 21:14:15;;;;;;;;;;;18.20;66.80;;;;;;10379626;28;88243;-68
2023/04/10 21:19:17;;;;;;;;;;;18.20;66.70;;;;;;10410851;27;88212;-68
2023/04/10 21:24:18;;;;;;;;;;;18.20;66.70;;;;;;10378935;28;89185;-68
2023/04/10 21:29:20;;;;;;;;;;;18.10;66.70;;;;;;10380140;28;89275;-69
2023/04/10 21:34:22;;;;;;;;;;;18.10;66.60;;;;;;10379587;28;87840;-68
2023/04/10 21:39:24;;;;;;;;;;;18.10;66.60;;;;;;10378449;28;89430;-69
2023/04/10 21:44:26;;;;;;;;;;;18.10;66.50;;;;;;10377816;28;89054;-69
2023/04/10 21:49:28;;;;;;;;;;;18.10;66.50;;;;;;10379943;28;87820;-69
2023/04/10 21:54:30;;;;;;;;;;;18.10;66.30;;;;;;10379702;28;89334;-67
2023/04/10 21:59:32;;;;;;;;;;;18.10;66.30;;;;;;10377305;28;89019;-66
2023/04/10 22:04:33;;;;;;;;;;;18.10;66.50;;;;;;10378784;28;88428;-66
2023/04/10 22:09:45;;;;;;;;;;;18.10;66.20;;;;;;10378712;28;88479;-67
2023/04/10 22:14:48;;;;;;;;;;;18.10;66.10;;;;;;10378393;28;89274;-67
2023/04/10 22:19:49;;;;;;;;;;;18.10;66.10;;;;;;10377824;28;88251;-67
2023/04/10 22:24:51;;;;;;;;;;;18.00;66.10;;;;;;10378095;28;89187;-67
2023/04/10 22:29:53;;;;;;;;;;;18.10;66.10;;;;;;10378207;28;87902;-68
2023/04/10 22:35:05;;;;;;;;;;;18.00;65.80;;;;;;10377032;28;87838;-68
2023/04/10 22:40:07;;;;;;;;;;;18.00;65.70;;;;;;10377716;28;88350;-69
2023/04/10 22:45:09;;;;;;;;;;;18.00;65.40;;;;;;10378062;28;87853;-69
2023/04/10 22:50:10;;;;;;;;;;;18.00;65.30;;;;;;10377432;28;89143;-68
2023/04/10 22:55:13;;;;;;;;;;;18.00;65.30;;;;;;10377881;28;88416;-68
2023/04/10 23:00:15;;;;;;;;;;;17.90;65.10;;;;;;10376181;28;87673;-67
2023/04/10 23:05:17;;;;;;;;;;;17.90;65.10;;;;;;10377348;28;89272;-67
2023/04/10 23:10:19;;;;;;;;;;;17.90;65.00;;;;;;10376730;28;87999;-68
2023/04/10 23:15:20;;;;;;;;;;;17.90;64.90;;;;;;10376976;28;88295;-68
2023/04/10 23:20:23;;;;;;;;;;;17.80;64.80;;;;;;10376324;28;88721;-68
2023/04/10 23:25:25;;;;;;;;;;;17.80;64.80;;;;;;10375313;28;87930;-68
2023/04/10 23:30:27;;;;;;;;;;;17.80;64.70;;;;;;10374819;28;88226;-68
2023/04/10 23:35:29;;;;;;;;;;;17.80;64.70;;;;;;10376580;28;89100;-68
2023/04/10 23:40:31;;;;;;;;;;;17.80;64.70;;;;;;10375580;28;88488;-68
2023/04/10 23:45:33;;;;;;;;;;;17.80;64.60;;;;;;10376604;28;88165;-68
2023/04/10 23:50:34;;;;;;;;;;;17.80;64.50;;;;;;10377019;28;89036;-68
2023/04/10 23:55:37;;;;;;;;;;;17.80;64.50;;;;;;10374834;28;88246;-68
